sensor_id;sensor_type;location;lat;lon;timestamp;P1;durP1;ratioP1;P2;durP2;ratioP2
946;SDS011;460;48.734;9.152;2023-11-18T00:00:53;2.95;;;2.25;;
946;SDS011;460;48.734;9.152;2023-11-18T00:03:20;2.90;;;2.70;;
946;SDS011;460;48.734;9.152;2023-11-18T00:05:47;2.78;;;2.38;;
946;SDS011;460;48.734;9.152;2023-11-18T00:08:14;5.65;;;2.95;;
946;SDS011;460;48.734;9.152;2023-11-18T00:10:42;3.03;;;2.42;;
946;SDS011;460;48.734;9.152;2023-11-18T00:13:09;3.15;;;2.85;;
946;SDS011;460;48.734;9.152;2023-11-18T00:15:36;4.32;;;2.20;;
946;SDS011;460;48.734;9.152;2023-11-18T00:18:03;2.65;;;2.45;;
946;SDS011;460;48.734;9.152;2023-11-18T00:20:30;3.28;;;2.50;;
946;SDS011;460;48.734;9.152;2023-11-18T00:22:57;2.22;;;2.03;;
946;SDS011;460;48.734;9.152;2023-11-18T00:25:24;2.38;;;2.17;;
946;SDS011;460;48.734;9.152;2023-11-18T00:27:52;2.17;;;1.67;;
946;SDS011;460;48.734;9.152;2023-11-18T00:30:20;2.35;;;2.15;;
946;SDS011;460;48.734;9.152;2023-11-18T00:32:47;2.40;;;2.20;;
946;SDS011;460;48.734;9.152;2023-11-18T00:35:14;2.28;;;2.08;;
946;SDS011;460;48.734;9.152;2023-11-18T00:37:41;2.10;;;1.92;;
946;SDS011;460;48.734;9.152;2023-11-18T00:40:11;2.78;;;1.98;;
946;SDS011;460;48.734;9.152;2023-11-18T00:42:37;2.50;;;2.30;;
946;SDS011;460;48.734;9.152;2023-11-18T00:45:06;2.53;;;2.15;;
946;SDS011;460;48.734;9.152;2023-11-18T00:47:34;2.00;;;1.80;;
946;SDS011;460;48.734;9.152;2023-11-18T00:50:00;2.30;;;2.10;;
946;SDS011;460;48.734;9.152;2023-11-18T00:52:28;2.72;;;2.50;;
946;SDS011;460;48.734;9.152;2023-11-18T00:54:54;3.15;;;2.85;;
946;SDS011;460;48.734;9.152;2023-11-18T00:57:21;4.13;;;3.15;;
946;SDS011;460;48.734;9.152;2023-11-18T00:59:48;3.03;;;2.80;;
946;SDS011;460;48.734;9.152;2023-11-18T01:02:16;2.78;;;2.40;;
946;SDS011;460;48.734;9.152;2023-11-18T01:04:45;3.38;;;3.10;;
946;SDS011;460;48.734;9.152;2023-11-18T01:07:15;3.25;;;2.65;;
946;SDS011;460;48.734;9.152;2023-11-18T01:09:44;3.38;;;2.58;;
946;SDS011;460;48.734;9.152;2023-11-18T01:12:12;2.42;;;2.22;;
946;SDS011;460;48.734;9.152;2023-11-18T01:14:40;1.85;;;1.75;;
946;SDS011;460;48.734;9.152;2023-11-18T01:17:10;1.88;;;1.70;;
946;SDS011;460;48.734;9.152;2023-11-18T01:19:41;3.38;;;2.17;;
946;SDS011;460;48.734;9.152;2023-11-18T01:22:09;2.63;;;2.20;;
946;SDS011;460;48.734;9.152;2023-11-18T01:24:36;4.78;;;2.63;;
946;SDS011;460;48.734;9.152;2023-11-18T01:27:04;2.70;;;2.50;;
946;SDS011;460;48.734;9.152;2023-11-18T01:29:32;2.15;;;1.95;;
946;SDS011;460;48.734;9.152;2023-11-18T01:31:59;3.90;;;2.35;;
946;SDS011;460;48.734;9.152;2023-11-18T01:34:30;3.22;;;2.53;;
946;SDS011;460;48.734;9.152;2023-11-18T01:37:00;2.30;;;1.77;;
946;SDS011;460;48.734;9.152;2023-11-18T01:39:27;1.70;;;1.60;;
946;SDS011;460;48.734;9.152;2023-11-18T01:41:55;1.70;;;1.60;;
946;SDS011;460;48.734;9.152;2023-11-18T01:44:24;2.90;;;2.45;;
946;SDS011;460;48.734;9.152;2023-11-18T01:46:53;1.50;;;1.40;;
946;SDS011;460;48.734;9.152;2023-11-18T01:49:21;2.70;;;2.30;;
946;SDS011;460;48.734;9.152;2023-11-18T01:51:49;1.85;;;1.58;;
946;SDS011;460;48.734;9.152;2023-11-18T01:54:18;2.40;;;1.63;;
946;SDS011;460;48.734;9.152;2023-11-18T01:56:49;1.90;;;1.77;;
946;SDS011;460;48.734;9.152;2023-11-18T01:59:17;2.05;;;1.58;;
946;SDS011;460;48.734;9.152;2023-11-18T02:01:45;2.80;;;1.55;;
946;SDS011;460;48.734;9.152;2023-11-18T02:04:15;2.13;;;1.60;;
946;SDS011;460;48.734;9.152;2023-11-18T02:06:44;2.65;;;2.45;;
946;SDS011;460;48.734;9.152;2023-11-18T02:09:13;2.08;;;1.88;;
946;SDS011;460;48.734;9.152;2023-11-18T02:11:44;3.25;;;2.30;;
946;SDS011;460;48.734;9.152;2023-11-18T02:14:20;2.15;;;1.65;;
946;SDS011;460;48.734;9.152;2023-11-18T02:16:49;2.65;;;2.10;;
946;SDS011;460;48.734;9.152;2023-11-18T02:19:20;1.83;;;1.50;;
946;SDS011;460;48.734;9.152;2023-11-18T02:21:48;2.47;;;2.28;;
946;SDS011;460;48.734;9.152;2023-11-18T02:24:25;1.58;;;1.40;;
946;SDS011;460;48.734;9.152;2023-11-18T02:26:57;1.88;;;1.77;;
946;SDS011;460;48.734;9.152;2023-11-18T02:29:28;2.17;;;1.98;;
946;SDS011;460;48.734;9.152;2023-11-18T02:32:03;2.22;;;1.67;;
946;SDS011;460;48.734;9.152;2023-11-18T02:34:39;1.90;;;1.73;;
946;SDS011;460;48.734;9.152;2023-11-18T02:37:14;1.15;;;1.05;;
946;SDS011;460;48.734;9.152;2023-11-18T02:39:43;1.38;;;1.27;;
946;SDS011;460;48.734;9.152;2023-11-18T02:42:19;2.10;;;1.90;;
946;SDS011;460;48.734;9.152;2023-11-18T02:44:50;1.75;;;1.40;;
946;SDS011;460;48.734;9.152;2023-11-18T02:47:25;2.50;;;1.85;;
946;SDS011;460;48.734;9.152;2023-11-18T02:49:55;1.80;;;1.70;;
946;SDS011;460;48.734;9.152;2023-11-18T02:52:30;1.63;;;1.52;;
946;SDS011;460;48.734;9.152;2023-11-18T02:54:57;1.75;;;1.30;;
946;SDS011;460;48.734;9.152;2023-11-18T02:57:25;1.77;;;1.67;;
946;SDS011;460;48.734;9.152;2023-11-18T02:59:52;2.03;;;1.83;;
946;SDS011;460;48.734;9.152;2023-11-18T03:02:19;3.75;;;2.15;;
946;SDS011;460;48.734;9.152;2023-11-18T03:04:46;1.35;;;1.17;;
946;SDS011;460;48.734;9.152;2023-11-18T03:07:13;1.42;;;1.33;;
946;SDS011;460;48.734;9.152;2023-11-18T03:09:40;3.60;;;1.50;;
946;SDS011;460;48.734;9.152;2023-11-18T03:12:07;1.60;;;1.50;;
946;SDS011;460;48.734;9.152;2023-11-18T03:14:35;2.00;;;1.52;;
946;SDS011;460;48.734;9.152;2023-11-18T03:17:03;3.53;;;2.05;;
946;SDS011;460;48.734;9.152;2023-11-18T03:19:32;1.98;;;1.45;;
946;SDS011;460;48.734;9.152;2023-11-18T03:22:00;1.92;;;1.23;;
946;SDS011;460;48.734;9.152;2023-11-18T03:24:28;1.70;;;1.60;;
946;SDS011;460;48.734;9.152;2023-11-18T03:26:56;1.58;;;1.38;;
946;SDS011;460;48.734;9.152;2023-11-18T03:29:24;1.70;;;1.60;;
946;SDS011;460;48.734;9.152;2023-11-18T03:31:53;2.10;;;1.90;;
946;SDS011;460;48.734;9.152;2023-11-18T03:34:21;1.77;;;1.67;;
946;SDS011;460;48.734;9.152;2023-11-18T03:36:48;2.55;;;1.73;;
946;SDS011;460;48.734;9.152;2023-11-18T03:39:17;1.80;;;1.35;;
946;SDS011;460;48.734;9.152;2023-11-18T03:41:44;2.30;;;1.73;;
946;SDS011;460;48.734;9.152;2023-11-18T03:44:12;2.90;;;2.28;;
946;SDS011;460;48.734;9.152;2023-11-18T03:46:39;1.67;;;1.58;;
946;SDS011;460;48.734;9.152;2023-11-18T03:49:08;1.33;;;1.23;;
946;SDS011;460;48.734;9.152;2023-11-18T03:51:34;1.60;;;1.50;;
946;SDS011;460;48.734;9.152;2023-11-18T03:54:01;1.90;;;1.67;;
946;SDS011;460;48.734;9.152;2023-11-18T03:56:29;1.13;;;1.13;;
946;SDS011;460;48.734;9.152;2023-11-18T03:58:55;1.38;;;1.27;;
946;SDS011;460;48.734;9.152;2023-11-18T04:01:22;1.10;;;1.10;;
946;SDS011;460;48.734;9.152;2023-11-18T04:03:52;1.83;;;1.55;;
946;SDS011;460;48.734;9.152;2023-11-18T04:06:21;1.52;;;1.42;;
946;SDS011;460;48.734;9.152;2023-11-18T04:08:49;1.50;;;1.38;;
946;SDS011;460;48.734;9.152;2023-11-18T04:11:17;1.95;;;1.45;;
946;SDS011;460;48.734;9.152;2023-11-18T04:13:44;1.50;;;1.40;;
946;SDS011;460;48.734;9.152;2023-11-18T04:16:11;3.03;;;2.75;;
946;SDS011;460;48.734;9.152;2023-11-18T04:18:38;2.17;;;1.92;;
946;SDS011;460;48.734;9.152;2023-11-18T04:21:06;1.45;;;1.35;;
946;SDS011;460;48.734;9.152;2023-11-18T04:23:34;2.10;;;1.77;;
946;SDS011;460;48.734;9.152;2023-11-18T04:26:02;1.33;;;1.30;;
946;SDS011;460;48.734;9.152;2023-11-18T04:28:30;1.70;;;1.60;;
946;SDS011;460;48.734;9.152;2023-11-18T04:30:57;2.35;;;1.60;;
946;SDS011;460;48.734;9.152;2023-11-18T04:33:24;1.75;;;1.48;;
946;SDS011;460;48.734;9.152;2023-11-18T04:35:51;1.55;;;1.40;;
946;SDS011;460;48.734;9.152;2023-11-18T04:38:18;2.03;;;1.85;;
946;SDS011;460;48.734;9.152;2023-11-18T04:40:46;1.50;;;1.40;;
946;SDS011;460;48.734;9.152;2023-11-18T04:43:13;2.28;;;2.08;;
946;SDS011;460;48.734;9.152;2023-11-18T04:45:40;1.77;;;1.67;;
946;SDS011;460;48.734;9.152;2023-11-18T04:48:08;1.67;;;1.30;;
946;SDS011;460;48.734;9.152;2023-11-18T04:50:35;1.92;;;1.70;;
946;SDS011;460;48.734;9.152;2023-11-18T04:53:02;1.77;;;1.45;;
946;SDS011;460;48.734;9.152;2023-11-18T04:55:29;1.48;;;1.10;;
946;SDS011;460;48.734;9.152;2023-11-18T04:57:57;1.63;;;1.52;;
946;SDS011;460;48.734;9.152;2023-11-18T05:00:24;3.30;;;1.75;;
946;SDS011;460;48.734;9.152;2023-11-18T05:02:51;1.55;;;1.45;;
946;SDS011;460;48.734;9.152;2023-11-18T05:05:18;1.95;;;1.35;;
946;SDS011;460;48.734;9.152;2023-11-18T05:07:44;1.60;;;1.13;;
946;SDS011;460;48.734;9.152;2023-11-18T05:10:11;1.45;;;1.35;;
946;SDS011;460;48.734;9.152;2023-11-18T05:12:38;2.08;;;1.75;;
946;SDS011;460;48.734;9.152;2023-11-18T05:15:07;2.30;;;2.10;;
946;SDS011;460;48.734;9.152;2023-11-18T05:17:34;2.67;;;1.60;;
946;SDS011;460;48.734;9.152;2023-11-18T05:20:01;1.60;;;1.50;;
946;SDS011;460;48.734;9.152;2023-11-18T05:22:28;2.33;;;1.75;;
946;SDS011;460;48.734;9.152;2023-11-18T05:24:56;3.17;;;1.80;;
946;SDS011;460;48.734;9.152;2023-11-18T05:27:22;2.10;;;1.90;;
946;SDS011;460;48.734;9.152;2023-11-18T05:29:51;3.00;;;2.60;;
946;SDS011;460;48.734;9.152;2023-11-18T05:32:21;4.00;;;2.05;;
946;SDS011;460;48.734;9.152;2023-11-18T05:34:48;2.47;;;2.28;;
946;SDS011;460;48.734;9.152;2023-11-18T05:37:15;2.30;;;2.00;;
946;SDS011;460;48.734;9.152;2023-11-18T05:39:43;2.50;;;2.35;;
946;SDS011;460;48.734;9.152;2023-11-18T05:42:10;3.50;;;2.85;;
946;SDS011;460;48.734;9.152;2023-11-18T05:44:37;2.30;;;2.10;;
946;SDS011;460;48.734;9.152;2023-11-18T05:47:05;2.50;;;2.30;;
946;SDS011;460;48.734;9.152;2023-11-18T05:49:33;1.55;;;1.45;;
946;SDS011;460;48.734;9.152;2023-11-18T05:52:00;2.38;;;1.83;;
946;SDS011;460;48.734;9.152;2023-11-18T05:54:27;2.10;;;1.80;;
946;SDS011;460;48.734;9.152;2023-11-18T05:56:53;1.75;;;1.52;;
946;SDS011;460;48.734;9.152;2023-11-18T05:59:20;2.55;;;2.10;;
946;SDS011;460;48.734;9.152;2023-11-18T06:01:48;1.92;;;1.60;;
946;SDS011;460;48.734;9.152;2023-11-18T06:04:16;3.80;;;2.30;;
946;SDS011;460;48.734;9.152;2023-11-18T06:06:44;2.15;;;1.95;;
946;SDS011;460;48.734;9.152;2023-11-18T06:09:12;2.38;;;2.15;;
946;SDS011;460;48.734;9.152;2023-11-18T06:11:45;2.92;;;2.58;;
946;SDS011;460;48.734;9.152;2023-11-18T06:14:14;1.90;;;1.60;;
946;SDS011;460;48.734;9.152;2023-11-18T06:16:42;2.13;;;1.85;;
946;SDS011;460;48.734;9.152;2023-11-18T06:19:08;2.65;;;2.33;;
946;SDS011;460;48.734;9.152;2023-11-18T06:21:36;2.60;;;2.40;;
946;SDS011;460;48.734;9.152;2023-11-18T06:24:04;2.10;;;2.00;;
946;SDS011;460;48.734;9.152;2023-11-18T06:26:31;2.72;;;2.45;;
946;SDS011;460;48.734;9.152;2023-11-18T06:29:01;3.35;;;2.10;;
946;SDS011;460;48.734;9.152;2023-11-18T06:31:29;2.03;;;1.85;;
946;SDS011;460;48.734;9.152;2023-11-18T06:33:56;1.67;;;1.58;;
946;SDS011;460;48.734;9.152;2023-11-18T06:36:23;3.45;;;3.03;;
946;SDS011;460;48.734;9.152;2023-11-18T06:38:51;2.10;;;2.00;;
946;SDS011;460;48.734;9.152;2023-11-18T06:41:22;3.10;;;2.80;;
946;SDS011;460;48.734;9.152;2023-11-18T06:43:50;3.25;;;2.92;;
946;SDS011;460;48.734;9.152;2023-11-18T06:46:22;3.42;;;3.13;;
946;SDS011;460;48.734;9.152;2023-11-18T06:48:50;3.55;;;3.08;;
946;SDS011;460;48.734;9.152;2023-11-18T06:51:19;2.78;;;2.42;;
946;SDS011;460;48.734;9.152;2023-11-18T06:53:48;4.20;;;2.95;;
946;SDS011;460;48.734;9.152;2023-11-18T06:56:15;2.90;;;2.60;;
946;SDS011;460;48.734;9.152;2023-11-18T06:58:43;2.75;;;2.38;;
946;SDS011;460;48.734;9.152;2023-11-18T07:01:12;3.55;;;3.25;;
946;SDS011;460;48.734;9.152;2023-11-18T07:03:40;4.05;;;3.03;;
946;SDS011;460;48.734;9.152;2023-11-18T07:06:07;4.50;;;4.18;;
946;SDS011;460;48.734;9.152;2023-11-18T07:08:34;4.30;;;3.00;;
946;SDS011;460;48.734;9.152;2023-11-18T07:11:01;2.35;;;2.15;;
946;SDS011;460;48.734;9.152;2023-11-18T07:13:28;4.93;;;3.78;;
946;SDS011;460;48.734;9.152;2023-11-18T07:15:57;4.43;;;3.10;;
946;SDS011;460;48.734;9.152;2023-11-18T07:18:24;3.97;;;3.58;;
946;SDS011;460;48.734;9.152;2023-11-18T07:20:51;3.17;;;2.85;;
946;SDS011;460;48.734;9.152;2023-11-18T07:23:17;4.95;;;4.03;;
946;SDS011;460;48.734;9.152;2023-11-18T07:25:44;3.03;;;2.72;;
946;SDS011;460;48.734;9.152;2023-11-18T07:28:12;4.50;;;3.28;;
946;SDS011;460;48.734;9.152;2023-11-18T07:30:40;6.10;;;3.05;;
946;SDS011;460;48.734;9.152;2023-11-18T07:33:09;2.28;;;1.90;;
946;SDS011;460;48.734;9.152;2023-11-18T07:35:36;2.95;;;2.65;;
946;SDS011;460;48.734;9.152;2023-11-18T07:38:03;3.53;;;2.05;;
946;SDS011;460;48.734;9.152;2023-11-18T07:40:32;4.10;;;3.30;;
946;SDS011;460;48.734;9.152;2023-11-18T07:42:59;2.63;;;2.15;;
946;SDS011;460;48.734;9.152;2023-11-18T07:45:26;2.55;;;2.35;;
946;SDS011;460;48.734;9.152;2023-11-18T07:47:54;3.38;;;2.85;;
946;SDS011;460;48.734;9.152;2023-11-18T07:50:22;5.38;;;2.92;;
946;SDS011;460;48.734;9.152;2023-11-18T07:52:49;3.85;;;3.08;;
946;SDS011;460;48.734;9.152;2023-11-18T07:55:16;2.75;;;2.55;;
946;SDS011;460;48.734;9.152;2023-11-18T07:57:43;4.13;;;3.80;;
946;SDS011;460;48.734;9.152;2023-11-18T08:00:11;2.95;;;2.75;;
946;SDS011;460;48.734;9.152;2023-11-18T08:02:40;4.22;;;2.30;;
946;SDS011;460;48.734;9.152;2023-11-18T08:05:07;4.07;;;3.45;;
946;SDS011;460;48.734;9.152;2023-11-18T08:07:35;3.30;;;2.95;;
946;SDS011;460;48.734;9.152;2023-11-18T08:10:03;4.55;;;2.85;;
946;SDS011;460;48.734;9.152;2023-11-18T08:12:30;2.65;;;2.00;;
946;SDS011;460;48.734;9.152;2023-11-18T08:14:58;3.35;;;2.78;;
946;SDS011;460;48.734;9.152;2023-11-18T08:17:25;5.55;;;3.10;;
946;SDS011;460;48.734;9.152;2023-11-18T08:19:53;5.25;;;3.80;;
946;SDS011;460;48.734;9.152;2023-11-18T08:22:21;8.15;;;3.78;;
946;SDS011;460;48.734;9.152;2023-11-18T08:24:49;4.47;;;3.22;;
946;SDS011;460;48.734;9.152;2023-11-18T08:27:16;4.78;;;2.72;;
946;SDS011;460;48.734;9.152;2023-11-18T08:29:44;2.90;;;1.67;;
946;SDS011;460;48.734;9.152;2023-11-18T08:32:13;4.40;;;2.58;;
946;SDS011;460;48.734;9.152;2023-11-18T08:34:40;3.35;;;2.45;;
946;SDS011;460;48.734;9.152;2023-11-18T08:37:07;3.03;;;2.53;;
946;SDS011;460;48.734;9.152;2023-11-18T08:39:34;4.07;;;2.55;;
946;SDS011;460;48.734;9.152;2023-11-18T08:42:02;2.55;;;2.28;;
946;SDS011;460;48.734;9.152;2023-11-18T08:44:32;3.17;;;2.17;;
946;SDS011;460;48.734;9.152;2023-11-18T08:46:59;1.75;;;1.65;;
946;SDS011;460;48.734;9.152;2023-11-18T08:49:31;1.80;;;1.70;;
946;SDS011;460;48.734;9.152;2023-11-18T08:51:59;1.40;;;1.30;;
946;SDS011;460;48.734;9.152;2023-11-18T08:54:26;1.80;;;1.70;;
946;SDS011;460;48.734;9.152;2023-11-18T08:57:03;1.92;;;1.65;;
946;SDS011;460;48.734;9.152;2023-11-18T08:59:44;3.03;;;1.70;;
946;SDS011;460;48.734;9.152;2023-11-18T09:02:11;1.80;;;1.70;;
946;SDS011;460;48.734;9.152;2023-11-18T09:04:40;2.38;;;1.40;;
946;SDS011;460;48.734;9.152;2023-11-18T09:07:08;1.92;;;1.60;;
946;SDS011;460;48.734;9.152;2023-11-18T09:09:36;2.60;;;2.40;;
946;SDS011;460;48.734;9.152;2023-11-18T09:12:06;1.60;;;1.50;;
946;SDS011;460;48.734;9.152;2023-11-18T09:14:34;1.20;;;1.10;;
946;SDS011;460;48.734;9.152;2023-11-18T09:17:01;1.45;;;1.33;;
946;SDS011;460;48.734;9.152;2023-11-18T09:19:28;1.25;;;1.15;;
946;SDS011;460;48.734;9.152;2023-11-18T09:21:54;1.45;;;1.35;;
946;SDS011;460;48.734;9.152;2023-11-18T09:24:21;1.40;;;1.30;;
946;SDS011;460;48.734;9.152;2023-11-18T09:26:50;1.50;;;1.40;;
946;SDS011;460;48.734;9.152;2023-11-18T09:29:18;1.50;;;1.40;;
946;SDS011;460;48.734;9.152;2023-11-18T09:31:49;1.27;;;1.17;;
946;SDS011;460;48.734;9.152;2023-11-18T09:34:17;1.40;;;1.30;;
946;SDS011;460;48.734;9.152;2023-11-18T09:36:52;1.25;;;1.15;;
946;SDS011;460;48.734;9.152;2023-11-18T09:39:19;1.85;;;1.65;;
946;SDS011;460;48.734;9.152;2023-11-18T09:42:02;1.80;;;1.70;;
946;SDS011;460;48.734;9.152;2023-11-18T09:44:35;2.08;;;1.65;;
946;SDS011;460;48.734;9.152;2023-11-18T09:47:03;2.20;;;2.00;;
946;SDS011;460;48.734;9.152;2023-11-18T09:49:37;1.33;;;1.23;;
946;SDS011;460;48.734;9.152;2023-11-18T09:52:12;3.80;;;1.47;;
946;SDS011;460;48.734;9.152;2023-11-18T09:54:45;1.30;;;1.17;;
946;SDS011;460;48.734;9.152;2023-11-18T09:57:19;2.03;;;1.50;;
946;SDS011;460;48.734;9.152;2023-11-18T09:59:54;1.80;;;1.70;;
946;SDS011;460;48.734;9.152;2023-11-18T10:02:35;2.03;;;1.60;;
946;SDS011;460;48.734;9.152;2023-11-18T10:05:05;1.80;;;1.37;;
946;SDS011;460;48.734;9.152;2023-11-18T10:07:37;1.20;;;1.20;;
946;SDS011;460;48.734;9.152;2023-11-18T10:10:05;1.80;;;1.70;;
946;SDS011;460;48.734;9.152;2023-11-18T10:12:39;1.57;;;0.93;;
946;SDS011;460;48.734;9.152;2023-11-18T10:15:09;1.50;;;1.40;;
946;SDS011;460;48.734;9.152;2023-11-18T10:17:39;1.63;;;1.53;;
946;SDS011;460;48.734;9.152;2023-11-18T10:20:20;1.20;;;1.10;;
946;SDS011;460;48.734;9.152;2023-11-18T10:22:50;1.00;;;0.90;;
946;SDS011;460;48.734;9.152;2023-11-18T10:25:32;1.67;;;1.50;;
946;SDS011;460;48.734;9.152;2023-11-18T10:28:00;1.20;;;1.10;;
946;SDS011;460;48.734;9.152;2023-11-18T10:30:29;1.20;;;1.10;;
946;SDS011;460;48.734;9.152;2023-11-18T10:32:58;0.90;;;0.90;;
946;SDS011;460;48.734;9.152;2023-11-18T10:35:31;1.90;;;1.20;;
946;SDS011;460;48.734;9.152;2023-11-18T10:38:00;1.23;;;1.13;;
946;SDS011;460;48.734;9.152;2023-11-18T10:40:31;1.17;;;1.10;;
946;SDS011;460;48.734;9.152;2023-11-18T10:43:00;1.90;;;1.37;;
946;SDS011;460;48.734;9.152;2023-11-18T10:45:31;1.30;;;1.10;;
946;SDS011;460;48.734;9.152;2023-11-18T10:47:58;1.30;;;1.00;;
946;SDS011;460;48.734;9.152;2023-11-18T10:50:26;2.70;;;1.60;;
946;SDS011;460;48.734;9.152;2023-11-18T10:52:57;3.50;;;1.60;;
946;SDS011;460;48.734;9.152;2023-11-18T10:55:33;4.17;;;3.00;;
946;SDS011;460;48.734;9.152;2023-11-18T10:58:01;5.03;;;2.93;;
946;SDS011;460;48.734;9.152;2023-11-18T11:00:29;2.80;;;2.60;;
946;SDS011;460;48.734;9.152;2023-11-18T11:03:12;1.50;;;1.40;;
946;SDS011;460;48.734;9.152;2023-11-18T11:05:39;1.17;;;1.07;;
946;SDS011;460;48.734;9.152;2023-11-18T11:08:11;1.40;;;1.30;;
946;SDS011;460;48.734;9.152;2023-11-18T11:10:41;1.17;;;1.03;;
946;SDS011;460;48.734;9.152;2023-11-18T11:13:08;1.00;;;0.83;;
946;SDS011;460;48.734;9.152;2023-11-18T11:15:39;1.00;;;1.00;;
946;SDS011;460;48.734;9.152;2023-11-18T11:18:10;1.23;;;1.10;;
946;SDS011;460;48.734;9.152;2023-11-18T11:20:47;1.87;;;0.90;;
946;SDS011;460;48.734;9.152;2023-11-18T11:23:20;1.83;;;0.90;;
946;SDS011;460;48.734;9.152;2023-11-18T11:25:55;2.90;;;1.17;;
946;SDS011;460;48.734;9.152;2023-11-18T11:28:34;1.00;;;0.80;;
946;SDS011;460;48.734;9.152;2023-11-18T11:31:11;2.40;;;1.20;;
946;SDS011;460;48.734;9.152;2023-11-18T11:33:46;1.27;;;1.17;;
946;SDS011;460;48.734;9.152;2023-11-18T11:36:20;3.33;;;1.23;;
946;SDS011;460;48.734;9.152;2023-11-18T11:38:52;1.27;;;0.90;;
946;SDS011;460;48.734;9.152;2023-11-18T11:41:21;2.30;;;1.47;;
946;SDS011;460;48.734;9.152;2023-11-18T11:43:51;1.30;;;1.17;;
946;SDS011;460;48.734;9.152;2023-11-18T11:46:24;1.17;;;1.07;;
946;SDS011;460;48.734;9.152;2023-11-18T11:48:59;1.93;;;1.20;;
946;SDS011;460;48.734;9.152;2023-11-18T11:51:35;1.60;;;1.40;;
946;SDS011;460;48.734;9.152;2023-11-18T11:54:09;1.23;;;1.13;;
946;SDS011;460;48.734;9.152;2023-11-18T11:56:41;1.93;;;1.00;;
946;SDS011;460;48.734;9.152;2023-11-18T11:59:08;2.10;;;1.67;;
946;SDS011;460;48.734;9.152;2023-11-18T12:01:37;1.10;;;0.90;;
946;SDS011;460;48.734;9.152;2023-11-18T12:04:08;1.40;;;1.30;;
946;SDS011;460;48.734;9.152;2023-11-18T12:06:46;1.17;;;1.07;;
946;SDS011;460;48.734;9.152;2023-11-18T12:09:18;1.13;;;1.03;;
946;SDS011;460;48.734;9.152;2023-11-18T12:11:45;3.50;;;1.20;;
946;SDS011;460;48.734;9.152;2023-11-18T12:14:14;1.03;;;1.03;;
946;SDS011;460;48.734;9.152;2023-11-18T12:17:00;3.50;;;1.23;;
946;SDS011;460;48.734;9.152;2023-11-18T12:19:34;1.77;;;0.80;;
946;SDS011;460;48.734;9.152;2023-11-18T12:22:19;1.53;;;0.70;;
946;SDS011;460;48.734;9.152;2023-11-18T12:27:58;0.63;;;0.63;;
946;SDS011;460;48.734;9.152;2023-11-18T12:30:43;0.83;;;0.83;;
946;SDS011;460;48.734;9.152;2023-11-18T12:36:43;0.60;;;0.60;;
946;SDS011;460;48.734;9.152;2023-11-18T12:42:58;1.40;;;0.80;;
946;SDS011;460;48.734;9.152;2023-11-18T12:48:44;1.03;;;0.93;;
946;SDS011;460;48.734;9.152;2023-11-18T12:51:16;0.67;;;0.67;;
946;SDS011;460;48.734;9.152;2023-11-18T12:53:48;5.00;;;2.20;;
946;SDS011;460;48.734;9.152;2023-11-18T12:56:18;1.47;;;1.37;;
946;SDS011;460;48.734;9.152;2023-11-18T12:58:45;0.70;;;0.70;;
946;SDS011;460;48.734;9.152;2023-11-18T13:01:12;1.60;;;1.50;;
946;SDS011;460;48.734;9.152;2023-11-18T13:03:41;3.80;;;1.20;;
946;SDS011;460;48.734;9.152;2023-11-18T13:06:08;1.73;;;1.63;;
946;SDS011;460;48.734;9.152;2023-11-18T13:08:36;1.60;;;1.50;;
946;SDS011;460;48.734;9.152;2023-11-18T13:11:05;1.50;;;1.30;;
946;SDS011;460;48.734;9.152;2023-11-18T13:13:37;1.47;;;1.37;;
946;SDS011;460;48.734;9.152;2023-11-18T13:16:05;2.70;;;1.50;;
946;SDS011;460;48.734;9.152;2023-11-18T13:18:41;1.87;;;1.70;;
946;SDS011;460;48.734;9.152;2023-11-18T13:21:12;1.23;;;1.13;;
946;SDS011;460;48.734;9.152;2023-11-18T13:23:41;2.97;;;1.80;;
946;SDS011;460;48.734;9.152;2023-11-18T13:26:09;2.50;;;2.17;;
946;SDS011;460;48.734;9.152;2023-11-18T13:28:37;1.23;;;1.13;;
946;SDS011;460;48.734;9.152;2023-11-18T13:31:05;1.00;;;1.00;;
946;SDS011;460;48.734;9.152;2023-11-18T13:33:36;1.47;;;1.27;;
946;SDS011;460;48.734;9.152;2023-11-18T13:36:04;1.40;;;1.20;;
946;SDS011;460;48.734;9.152;2023-11-18T13:38:35;1.93;;;1.23;;
946;SDS011;460;48.734;9.152;2023-11-18T13:41:02;1.53;;;1.13;;
946;SDS011;460;48.734;9.152;2023-11-18T13:43:41;1.63;;;1.53;;
946;SDS011;460;48.734;9.152;2023-11-18T13:46:12;5.43;;;1.40;;
946;SDS011;460;48.734;9.152;2023-11-18T13:48:39;2.87;;;1.60;;
946;SDS011;460;48.734;9.152;2023-11-18T13:51:07;1.33;;;1.23;;
946;SDS011;460;48.734;9.152;2023-11-18T13:53:37;2.67;;;1.37;;
946;SDS011;460;48.734;9.152;2023-11-18T13:56:05;1.20;;;1.10;;
946;SDS011;460;48.734;9.152;2023-11-18T13:58:34;3.20;;;1.90;;
946;SDS011;460;48.734;9.152;2023-11-18T14:01:04;1.07;;;1.03;;
946;SDS011;460;48.734;9.152;2023-11-18T14:03:32;1.70;;;1.60;;
946;SDS011;460;48.734;9.152;2023-11-18T14:05:59;1.60;;;1.50;;
946;SDS011;460;48.734;9.152;2023-11-18T14:08:26;1.37;;;1.27;;
946;SDS011;460;48.734;9.152;2023-11-18T14:10:54;1.30;;;1.30;;
946;SDS011;460;48.734;9.152;2023-11-18T14:13:21;4.00;;;1.80;;
946;SDS011;460;48.734;9.152;2023-11-18T14:15:48;1.50;;;1.40;;
946;SDS011;460;48.734;9.152;2023-11-18T14:18:21;2.10;;;1.80;;
946;SDS011;460;48.734;9.152;2023-11-18T14:20:48;2.57;;;1.83;;
946;SDS011;460;48.734;9.152;2023-11-18T14:23:15;3.43;;;1.90;;
946;SDS011;460;48.734;9.152;2023-11-18T14:25:43;1.67;;;1.43;;
946;SDS011;460;48.734;9.152;2023-11-18T14:28:10;2.90;;;1.80;;
946;SDS011;460;48.734;9.152;2023-11-18T14:30:38;2.67;;;2.10;;
946;SDS011;460;48.734;9.152;2023-11-18T14:33:05;2.13;;;1.83;;
946;SDS011;460;48.734;9.152;2023-11-18T14:35:33;3.07;;;2.60;;
946;SDS011;460;48.734;9.152;2023-11-18T14:38:00;2.60;;;2.40;;
946;SDS011;460;48.734;9.152;2023-11-18T14:40:27;2.40;;;2.20;;
946;SDS011;460;48.734;9.152;2023-11-18T14:42:54;2.80;;;2.33;;
946;SDS011;460;48.734;9.152;2023-11-18T14:45:22;2.83;;;2.40;;
946;SDS011;460;48.734;9.152;2023-11-18T14:47:48;2.90;;;2.50;;
946;SDS011;460;48.734;9.152;2023-11-18T14:50:18;2.97;;;2.03;;
946;SDS011;460;48.734;9.152;2023-11-18T14:52:47;1.83;;;1.73;;
946;SDS011;460;48.734;9.152;2023-11-18T14:55:16;2.63;;;2.23;;
946;SDS011;460;48.734;9.152;2023-11-18T14:57:43;2.30;;;2.10;;
946;SDS011;460;48.734;9.152;2023-11-18T15:00:12;2.17;;;2.03;;
946;SDS011;460;48.734;9.152;2023-11-18T15:02:45;2.80;;;2.23;;
946;SDS011;460;48.734;9.152;2023-11-18T15:05:13;3.00;;;2.33;;
946;SDS011;460;48.734;9.152;2023-11-18T15:07:43;3.23;;;2.50;;
946;SDS011;460;48.734;9.152;2023-11-18T15:10:14;2.43;;;2.23;;
946;SDS011;460;48.734;9.152;2023-11-18T15:12:44;3.40;;;3.10;;
946;SDS011;460;48.734;9.152;2023-11-18T15:15:12;3.53;;;2.33;;
946;SDS011;460;48.734;9.152;2023-11-18T15:17:43;2.80;;;2.13;;
946;SDS011;460;48.734;9.152;2023-11-18T15:20:11;3.63;;;2.20;;
946;SDS011;460;48.734;9.152;2023-11-18T15:22:40;3.10;;;2.40;;
946;SDS011;460;48.734;9.152;2023-11-18T15:25:09;3.40;;;2.67;;
946;SDS011;460;48.734;9.152;2023-11-18T15:27:38;2.13;;;2.03;;
946;SDS011;460;48.734;9.152;2023-11-18T15:30:11;3.40;;;2.70;;
946;SDS011;460;48.734;9.152;2023-11-18T15:32:39;2.40;;;2.20;;
946;SDS011;460;48.734;9.152;2023-11-18T15:35:07;2.53;;;2.30;;
946;SDS011;460;48.734;9.152;2023-11-18T15:37:35;2.53;;;2.10;;
946;SDS011;460;48.734;9.152;2023-11-18T15:40:04;5.03;;;2.80;;
946;SDS011;460;48.734;9.152;2023-11-18T15:42:40;3.50;;;2.83;;
946;SDS011;460;48.734;9.152;2023-11-18T15:45:08;2.70;;;2.50;;
946;SDS011;460;48.734;9.152;2023-11-18T15:47:36;3.93;;;3.53;;
946;SDS011;460;48.734;9.152;2023-11-18T15:50:04;3.43;;;3.10;;
946;SDS011;460;48.734;9.152;2023-11-18T15:52:32;6.40;;;3.80;;
946;SDS011;460;48.734;9.152;2023-11-18T15:55:00;5.27;;;4.23;;
946;SDS011;460;48.734;9.152;2023-11-18T15:57:34;5.60;;;4.50;;
946;SDS011;460;48.734;9.152;2023-11-18T16:00:04;7.73;;;4.20;;
946;SDS011;460;48.734;9.152;2023-11-18T16:02:34;6.43;;;2.70;;
946;SDS011;460;48.734;9.152;2023-11-18T16:05:01;2.70;;;2.50;;
946;SDS011;460;48.734;9.152;2023-11-18T16:07:28;4.63;;;2.80;;
946;SDS011;460;48.734;9.152;2023-11-18T16:09:55;4.10;;;3.37;;